Time;durP1;ratioP1;P1;durP2;ratioP2;P2;SDS_P1;SDS_P2;PMS_P1;PMS_P2;Temp;Humidity;BMP_temperature;BMP_pressure;BME280_temperature;BME280_humidity;BME280_pressure;Samples;Min_cycle;Max_cycle;Signal;HPM_P1;HPM_P2
2023/01/31 00:00:11;;;;;;;14.10;9.30;;;;;;;-0.98;100.00;99287.23;105066;1258;59858;-50
2023/01/31 00:02:41;;;;;;;13.70;9.20;;;;;;;-0.97;100.00;99288.64;104936;1256;60855;-50
2023/01/31 00:05:09;;;;;;;13.90;9.20;;;;;;;-0.95;100.00;99288.98;105421;1257;72033;-48
2023/01/31 00:07:37;;;;;;;14.60;9.80;;;;;;;-0.94;100.00;99287.89;105324;1254;66874;-51
2023/01/31 00:10:05;;;;;;;15.30;9.80;;;;;;;-0.93;100.00;99281.20;105272;1254;73002;-51
2023/01/31 00:14:19;;;;;;;16.00;10.90;;;;;;;-0.91;100.00;99307.23;102541;1286;601259;-49
2023/01/31 00:16:47;;;;;;;16.40;10.40;;;;;;;-0.92;100.00;99357.09;104709;1269;59360;-51
2023/01/31 00:19:15;;;;;;;17.30;9.90;;;;;;;-0.91;100.00;99345.98;104319;1266;59742;-49
2023/01/31 00:21:46;;;;;;;16.20;10.20;;;;;;;-0.91;100.00;99335.23;104587;1265;72846;-51
2023/01/31 00:24:14;;;;;;;16.90;9.90;;;;;;;-0.90;100.00;99327.14;104712;1267;67065;-50
2023/01/31 00:26:42;;;;;;;16.00;9.80;;;;;;;-0.90;100.00;99322.56;104513;1267;73551;-50
2023/01/31 00:29:10;;;;;;;15.20;9.20;;;;;;;-0.90;100.00;99320.44;104817;1263;163730;-49
2023/01/31 00:31:39;;;;;;;16.00;10.90;;;;;;;-0.87;100.00;99316.90;104670;1263;60254;-49
2023/01/31 00:34:07;;;;;;;16.80;9.80;;;;;;;-0.86;100.00;99320.24;104778;1266;70923;-51
2023/01/31 00:36:35;;;;;;;16.40;10.50;;;;;;;-0.84;100.00;99318.80;104656;1267;66357;-50
2023/01/31 00:39:05;;;;;;;13.10;9.00;;;;;;;-0.82;100.00;99317.37;104579;1264;73472;-51
2023/01/31 00:41:35;;;;;;;14.40;8.70;;;;;;;-0.80;100.00;99319.83;104658;1262;60642;-51
2023/01/31 00:44:06;;;;;;;14.10;9.30;;;;;;;-0.80;100.00;99313.66;104529;1264;59590;-50
2023/01/31 00:46:36;;;;;;;16.40;10.20;;;;;;;-0.80;100.00;99312.95;103946;1264;73588;-51
2023/01/31 00:49:05;;;;;;;14.90;9.10;;;;;;;-0.79;100.00;99317.00;104848;1263;66330;-51
2023/01/31 00:51:34;;;;;;;16.40;10.10;;;;;;;-0.77;100.00;99316.09;104431;1266;71966;-50
2023/01/31 00:54:02;;;;;;;16.10;9.20;;;;;;;-0.77;100.00;99313.61;104679;1266;61586;-48
2023/01/31 00:56:30;;;;;;;13.60;8.80;;;;;;;-0.75;100.00;99313.77;104856;1264;60741;-50
2023/01/31 00:59:00;;;;;;;16.30;10.30;;;;;;;-0.73;100.00;99316.23;105133;1269;73925;-50
2023/01/31 01:01:29;;;;;;;17.90;9.40;;;;;;;-0.71;100.00;99316.22;104629;1263;65273;-51
2023/01/31 01:03:57;;;;;;;15.10;9.10;;;;;;;-0.70;100.00;99309.52;104571;1263;74134;-50
2023/01/31 01:06:28;;;;;;;17.10;11.10;;;;;;;-0.69;100.00;99316.20;104523;1266;61111;-49
2023/01/31 01:08:58;;;;;;;17.70;10.00;;;;;;;-0.67;100.00;99312.80;104710;1263;60256;-49
2023/01/31 01:11:31;;;;;;;14.40;9.30;;;;;;;-0.65;100.00;99307.50;104702;1262;73644;-50
2023/01/31 01:13:59;;;;;;;15.10;9.60;;;;;;;-0.63;100.00;99303.61;104730;1269;67515;-50
2023/01/31 01:16:31;;;;;;;15.50;9.20;;;;;;;-0.61;100.00;99301.85;104485;1264;76124;-50
2023/01/31 01:19:01;;;;;;;12.60;9.00;;;;;;;-0.58;100.00;99303.73;104572;1264;62308;-50
2023/01/31 01:21:31;;;;;;;14.40;9.00;;;;;;;-0.57;100.00;99306.37;104733;1264;59535;-50
2023/01/31 01:24:00;;;;;;;14.50;9.00;;;;;;;-0.56;100.00;99305.11;104614;1264;73304;-49
2023/01/31 01:26:30;;;;;;;16.40;10.20;;;;;;;-0.55;100.00;99305.83;104391;1264;68480;-49
2023/01/31 01:28:59;;;;;;;15.30;10.00;;;;;;;-0.54;100.00;99308.11;108455;1262;75012;-51
2023/01/31 01:31:29;;;;;;;17.00;9.70;;;;;;;-0.52;100.00;99311.43;105725;1264;59603;-52
2023/01/31 01:33:59;;;;;;;14.60;9.90;;;;;;;-0.50;100.00;99309.63;108481;1263;59623;-51
2023/01/31 01:36:28;;;;;;;15.00;9.00;;;;;;;-0.49;100.00;99310.33;108567;1263;74302;-50
2023/01/31 01:38:56;;;;;;;15.30;9.50;;;;;;;-0.48;100.00;99313.32;108570;1263;65827;-52
2023/01/31 01:41:24;;;;;;;15.30;9.70;;;;;;;-0.46;100.00;99316.30;106451;1264;73949;-50
2023/01/31 01:43:54;;;;;;;15.60;9.40;;;;;;;-0.45;100.00;99314.35;105302;1266;61776;-50
2023/01/31 01:46:26;;;;;;;15.20;10.10;;;;;;;-0.44;100.00;99312.23;104553;1264;59975;-50
2023/01/31 01:49:01;;;;;;;16.40;9.70;;;;;;;-0.41;100.00;99313.23;104683;1266;73310;-49
2023/01/31 01:51:30;;;;;;;;;;;;;;;-0.40;100.00;99313.58;104257;1264;66237;-51
2023/01/31 01:54:00;;;;;;;14.60;10.10;;;;;;;-0.40;100.00;99312.87;104592;1264;73591;-50
2023/01/31 01:56:31;;;;;;;17.50;11.20;;;;;;;-0.40;100.00;99316.23;104557;1264;61709;-50
2023/01/31 01:59:07;;;;;;;14.50;9.20;;;;;;;-0.40;100.00;99312.70;105636;1263;60298;-48
2023/01/31 02:01:37;;;;;;;16.50;10.90;;;;;;;-0.40;100.00;99314.63;104504;1266;72193;-49
2023/01/31 02:04:11;;;;;;;18.00;10.30;;;;;;;-0.39;100.00;99312.16;104974;1260;66645;-50
2023/01/31 02:06:40;;;;;;;12.90;9.20;;;;;;;-0.36;100.00;99318.84;104622;1261;72913;-49
2023/01/31 02:09:08;;;;;;;14.60;9.80;;;;;;;-0.34;100.00;99310.52;104745;1260;60361;-50
2023/01/31 02:11:37;;;;;;;16.30;9.40;;;;;;;-0.33;100.00;99313.13;104719;1260;59630;-49
2023/01/31 02:14:07;;;;;;;18.40;10.90;;;;;;;-0.30;100.00;99315.23;105139;1260;73072;-50
2023/01/31 02:16:35;;;;;;;19.40;11.10;;;;;;;-0.29;100.00;99317.34;104764;1263;66320;-49
2023/01/31 02:19:07;;;;;;;16.90;11.00;;;;;;;-0.30;100.00;99318.40;105128;1257;70311;-49
2023/01/31 02:22:00;;;;;;;18.40;12.00;;;;;;;-0.30;100.00;99320.52;105369;1254;59756;-51
2023/01/31 02:24:50;;;;;;;17.50;11.20;;;;;;;-0.32;100.00;99326.90;105225;1254;60620;-51
2023/01/31 02:27:25;;;;;;;18.30;11.70;;;;;;;-0.35;100.00;99327.65;105219;1257;70936;-49
2023/01/31 02:30:23;;;;;;;15.50;10.10;;;;;;;-0.39;100.00;99318.33;105631;1259;66686;-50
2023/01/31 02:32:57;;;;;;;14.90;10.10;;;;;;;-0.41;100.00;99326.80;105150;1257;71576;-51
2023/01/31 02:35:47;;;;;;;16.70;10.60;;;;;;;-0.42;100.00;99318.89;105322;1259;59724;-50
2023/01/31 02:38:38;;;;;;;19.70;11.50;;;;;;;-0.42;100.00;99321.18;104995;1254;59818;-50
2023/01/31 02:41:19;;;;;;;16.30;10.60;;;;;;;-0.40;100.00;99325.21;105139;1255;73817;-50
2023/01/31 02:47:13;;;;;;;16.70;10.20;;;;;;;-0.38;100.00;99338.41;105021;1260;73056;-49
2023/01/31 02:49:45;;;;;;;17.10;11.10;;;;;;;-0.36;100.00;99338.41;105254;1259;60647;-51
2023/01/31 02:52:34;;;;;;;16.10;10.50;;;;;;;-0.34;100.00;99329.91;105674;1257;60178;-50
2023/01/31 02:58:06;;;;;;;18.10;10.50;;;;;;;-0.31;100.00;99345.05;105626;1260;67081;-48
2023/01/31 03:00:35;;;;;;;15.70;10.50;;;;;;;-0.31;100.00;99338.69;104924;1258;73888;-49
2023/01/31 03:03:05;;;;;;;17.90;11.30;;;;;;;-0.31;100.00;99335.16;105181;1254;62218;-48
2023/01/31 03:05:36;;;;;;;16.30;10.30;;;;;;;-0.30;100.00;99335.15;105293;1257;60452;-49
2023/01/31 03:08:04;;;;;;;13.40;9.10;;;;;;;-0.29;100.00;99327.23;105311;1257;72097;-49
2023/01/31 03:10:53;;;;;;;18.00;9.90;;;;;;;-0.28;100.00;99327.02;105324;1259;66332;-50
2023/01/31 03:13:34;;;;;;;17.00;9.80;;;;;;;-0.27;100.00;99338.48;105145;1256;73810;-50
2023/01/31 03:19:31;;;;;;;13.10;8.50;;;;;;;-0.28;100.00;99351.19;105327;1254;60580;-51
2023/01/31 03:22:10;;;;;;;15.30;9.90;;;;;;;-0.27;100.00;99348.19;105153;1257;72635;-49
2023/01/31 03:24:47;;;;;;;13.70;8.90;;;;;;;-0.27;100.00;99341.30;105980;1260;68423;-49
2023/01/31 03:27:15;;;;;;;12.70;8.90;;;;;;;-0.26;100.00;99336.17;105574;1254;72005;-50
2023/01/31 03:29:44;;;;;;;16.50;9.40;;;;;;;-0.24;100.00;99331.19;105205;1260;60673;-50
2023/01/31 03:32:23;;;;;;;11.20;8.00;;;;;;;-0.23;100.00;99333.30;105023;1254;60236;-52
2023/01/31 03:34:52;;;;;;;14.70;9.80;;;;;;;-0.23;100.00;99337.01;105474;1257;70757;-50
2023/01/31 03:37:30;;;;;;;13.10;9.10;;;;;;;-0.23;100.00;99328.36;105052;1254;65932;-50
2023/01/31 03:40:24;;;;;;;12.10;8.40;;;;;;;-0.23;100.00;99336.12;105152;1258;71818;-49
2023/01/31 03:42:57;;;;;;;13.10;9.10;;;;;;;-0.23;100.00;99341.41;105281;1257;59758;-51
2023/01/31 03:45:31;;;;;;;11.00;8.40;;;;;;;-0.22;100.00;99336.47;105362;1258;59657;-51
2023/01/31 03:48:02;;;;;;;14.10;8.90;;;;;;;-0.21;100.00;99334.52;105327;1257;71331;-51
2023/01/31 03:50:37;;;;;;;14.10;9.20;;;;;;;-0.20;100.00;99336.80;105081;1257;68121;-53
2023/01/31 03:53:09;;;;;;;15.80;9.90;;;;;;;-0.19;100.00;99339.98;105219;1262;72367;-50
2023/01/31 03:55:56;;;;;;;13.90;9.70;;;;;;;-0.17;100.00;99337.84;105105;1260;59823;-50
2023/01/31 03:58:27;;;;;;;16.30;9.50;;;;;;;-0.17;100.00;99346.30;105019;1254;61238;-50
2023/01/31 04:01:00;;;;;;;16.80;9.70;;;;;;;-0.17;100.00;99345.23;106386;1259;71402;-50
2023/01/31 04:03:40;;;;;;;10.20;7.90;;;;;;;-0.19;100.00;99347.02;105127;1257;68371;-52
2023/01/31 04:06:10;;;;;;;12.80;8.60;;;;;;;-0.20;100.00;99347.21;105196;1259;72968;-50
2023/01/31 04:08:38;;;;;;;12.80;8.40;;;;;;;-0.21;100.00;99339.11;105060;1260;59908;-50
2023/01/31 04:11:10;;;;;;;13.70;9.00;;;;;;;-0.21;100.00;99339.29;105106;1260;59694;-49
2023/01/31 04:13:38;;;;;;;14.60;9.30;;;;;;;-0.21;100.00;99346.87;105132;1255;70718;-48
2023/01/31 04:16:07;;;;;;;13.40;9.30;;;;;;;-0.22;100.00;99347.92;105125;1260;66337;-49
2023/01/31 04:18:37;;;;;;;14.60;8.90;;;;;;;-0.22;100.00;99350.40;105168;1254;70558;-50
2023/01/31 04:21:06;;;;;;;11.70;8.30;;;;;;;-0.22;100.00;99349.34;105482;1259;61514;-48
2023/01/31 04:23:34;;;;;;;11.50;8.50;;;;;;;-0.21;100.00;99351.45;105337;1254;59636;-49
2023/01/31 04:26:02;;;;;;;13.20;9.20;;;;;;;-0.20;100.00;99353.55;105152;1255;72145;-49
2023/01/31 04:28:31;;;;;;;11.50;7.60;;;;;;;-0.19;100.00;99357.26;105324;1259;66164;-49
2023/01/31 04:30:59;;;;;;;13.80;7.50;;;;;;;-0.20;100.00;99353.55;104869;1255;70204;-49
2023/01/31 04:33:29;;;;;;;11.10;8.40;;;;;;;-0.20;100.00;99356.20;104961;1259;60462;-50
2023/01/31 04:35:57;;;;;;;14.40;9.60;;;;;;;-0.19;100.00;99356.38;105073;1259;60542;-50
2023/01/31 04:38:25;;;;;;;11.90;8.80;;;;;;;-0.18;100.00;99357.59;105090;1260;72742;-49
2023/01/31 04:40:53;;;;;;;12.40;8.90;;;;;;;-0.17;100.00;99359.68;105816;1254;67299;-50
2023/01/31 04:43:21;;;;;;;11.70;8.50;;;;;;;-0.16;100.00;99363.02;105679;1257;71994;-48
2023/01/31 04:45:49;;;;;;;11.20;8.60;;;;;;;-0.15;100.00;99365.48;105309;1259;61066;-52
2023/01/31 04:48:17;;;;;;;9.70;7.80;;;;;;;-0.13;100.00;99370.05;106448;1257;60449;-51
2023/01/31 04:50:45;;;;;;;12.90;8.90;;;;;;;-0.12;100.00;99376.74;106286;1254;72689;-50
2023/01/31 04:53:14;;;;;;;11.50;8.80;;;;;;;-0.11;100.00;99376.39;105197;1254;67845;-51
2023/01/31 04:55:45;;;;;;;12.50;9.10;;;;;;;-0.11;100.00;99379.91;105284;1260;73500;-50
2023/01/31 04:58:13;;;;;;;11.10;8.50;;;;;;;-0.09;100.00;99382.02;105201;1259;61584;-50
2023/01/31 05:00:43;;;;;;;12.60;8.70;;;;;;;-0.07;100.00;99388.48;105379;1254;60479;-49
2023/01/31 05:03:12;;;;;;;11.80;8.60;;;;;;;-0.07;100.00;99383.73;105127;1255;73511;-49
2023/01/31 05:05:40;;;;;;;14.60;9.80;;;;;;;-0.06;100.00;99382.14;105398;1254;67076;-49
2023/01/31 05:08:08;;;;;;;12.00;8.70;;;;;;;-0.05;100.00;99385.30;105246;1259;73058;-50
2023/01/31 05:10:38;;;;;;;12.10;8.80;;;;;;;-0.04;100.00;99389.70;105097;1259;61930;-49
2023/01/31 05:13:06;;;;;;;12.10;8.00;;;;;;;-0.04;100.00;99396.05;105383;1258;60955;-49
2023/01/31 05:15:37;;;;;;;11.70;9.00;;;;;;;-0.04;100.00;99393.23;105206;1257;74086;-49
2023/01/31 05:18:05;;;;;;;12.90;9.40;;;;;;;-0.04;100.00;99394.81;105302;1257;68968;-48
2023/01/31 05:20:38;;;;;;;12.00;9.00;;;;;;;-0.04;100.00;99398.34;105813;1255;72458;-48
2023/01/31 05:23:06;;;;;;;14.30;10.40;;;;;;;-0.04;100.00;99400.46;105429;1254;60583;-50
2023/01/31 05:25:36;;;;;;;17.00;11.60;;;;;;;-0.06;100.00;99403.30;105332;1254;62862;-49
2023/01/31 05:28:04;;;;;;;16.30;10.30;;;;;;;-0.07;100.00;99405.42;105277;1259;72908;-51
2023/01/31 05:30:32;;;;;;;12.20;9.40;;;;;;;-0.09;100.00;99401.58;105101;1254;66127;-50
2023/01/31 05:33:00;;;;;;;12.30;10.00;;;;;;;-0.10;100.00;99404.60;105413;1257;72975;-49
2023/01/31 05:37:07;;;;;;;12.50;9.10;;;;;;;-0.12;100.00;99434.76;101358;1292;600454;-49
2023/01/31 05:39:36;;;;;;;12.70;9.00;;;;;;;-0.13;100.00;99490.51;105858;1270;60718;-51
2023/01/31 05:42:04;;;;;;;12.20;9.00;;;;;;;-0.12;100.00;99479.75;104219;1267;60312;-48
2023/01/31 05:44:32;;;;;;;12.80;8.70;;;;;;;-0.12;100.00;99472.87;104161;1270;71809;-48
2023/01/31 05:47:00;;;;;;;11.80;9.30;;;;;;;-0.11;100.00;99464.23;104221;1267;65143;-49
2023/01/31 05:49:32;;;;;;;13.70;9.60;;;;;;;-0.10;100.00;99470.91;104540;1267;73703;-51
2023/01/31 05:52:00;;;;;;;13.20;10.10;;;;;;;-0.07;100.00;99468.56;105058;1257;61157;-51
2023/01/31 05:54:29;;;;;;;12.40;9.30;;;;;;;-0.03;100.00;99469.42;105020;1256;59545;-49
2023/01/31 05:57:00;;;;;;;12.30;9.70;;;;;;;-0.01;100.00;99465.70;104615;1257;70203;-50
2023/01/31 05:59:30;;;;;;;14.70;10.90;;;;;;;0.03;100.00;99463.36;105165;1262;66114;-49
2023/01/31 06:01:58;;;;;;;16.20;10.40;;;;;;;0.06;100.00;99466.16;105758;1256;72565;-49
2023/01/31 06:04:31;;;;;;;14.30;10.50;;;;;;;0.09;100.00;99471.25;104856;1261;63834;-50
2023/01/31 06:07:00;;;;;;;12.50;9.60;;;;;;;0.10;100.00;99475.98;104950;1258;61324;-49
2023/01/31 06:09:30;;;;;;;13.80;10.10;;;;;;;0.12;100.00;99473.67;104960;1258;73335;-49
2023/01/31 06:11:59;;;;;;;15.00;10.60;;;;;;;0.15;100.00;99477.54;104977;1257;66251;-49
2023/01/31 06:14:29;;;;;;;14.10;10.70;;;;;;;0.17;100.00;99473.08;105001;1260;72745;-50
2023/01/31 06:16:57;;;;;;;17.30;10.90;;;;;;;0.19;100.00;99470.23;105210;1262;59537;-49
2023/01/31 06:19:26;;;;;;;15.70;11.10;;;;;;;0.18;100.00;99461.77;104976;1259;59688;-49
2023/01/31 06:21:54;;;;;;;16.50;11.30;;;;;;;0.18;100.00;99462.48;105121;1257;72082;-49
2023/01/31 06:24:22;;;;;;;17.00;12.20;;;;;;;0.19;100.00;99461.41;105531;1257;66263;-49
2023/01/31 06:26:50;;;;;;;17.20;11.40;;;;;;;0.19;100.00;99463.53;104627;1258;75124;-51
2023/01/31 06:29:18;;;;;;;14.20;10.20;;;;;;;0.20;100.00;99464.59;104829;1262;59825;-49
2023/01/31 06:31:46;;;;;;;15.40;11.00;;;;;;;0.21;100.00;99466.70;104857;1261;59673;-49
2023/01/31 06:34:14;;;;;;;12.30;9.00;;;;;;;0.22;100.00;99470.20;105983;1259;72462;-48
2023/01/31 06:36:42;;;;;;;16.90;11.30;;;;;;;0.23;100.00;99469.15;104879;1260;66471;-51
2023/01/31 06:39:13;;;;;;;15.70;10.20;;;;;;;0.25;100.00;99469.12;104793;1260;73840;-49
2023/01/31 06:41:41;;;;;;;16.80;10.90;;;;;;;0.28;100.00;99472.96;104785;1259;60121;-49
2023/01/31 06:44:11;;;;;;;15.50;10.80;;;;;;;0.31;100.00;99476.11;104968;1257;59694;-49
2023/01/31 06:46:39;;;;;;;13.30;9.40;;;;;;;0.32;100.00;99478.05;105058;1260;71027;-50
2023/01/31 06:49:07;;;;;;;14.40;10.40;;;;;;;0.35;100.00;99479.95;104797;1260;67798;-49
2023/01/31 06:51:35;;;;;;;13.10;10.60;;;;;;;0.36;100.00;99487.52;104948;1259;72063;-49
2023/01/31 06:54:04;;;;;;;11.70;8.70;;;;;;;0.39;100.00;99492.61;104928;1260;62129;-48
2023/01/31 06:56:32;;;;;;;14.30;9.70;;;;;;;0.44;100.00;99493.95;105197;1260;59717;-51
2023/01/31 06:59:00;;;;;;;13.00;9.90;;;;;;;0.48;100.00;99501.87;105845;1258;72653;-49
2023/01/31 07:01:28;;;;;;;19.10;12.10;;;;;;;0.50;100.00;99501.32;105461;1262;68615;-50
2023/01/31 07:03:57;;;;;;;14.10;10.50;;;;;;;0.52;100.00;99501.80;104752;1259;71826;-50
2023/01/31 07:06:25;;;;;;;14.30;10.40;;;;;;;0.53;100.00;99503.39;104723;1259;60674;-49
2023/01/31 07:08:53;;;;;;;18.40;11.70;;;;;;;0.54;100.00;99504.08;105604;1259;59675;-51
2023/01/31 07:11:21;;;;;;;16.70;10.90;;;;;;;0.56;100.00;99510.06;104881;1260;71963;-48
2023/01/31 07:13:49;;;;;;;12.90;10.00;;;;;;;0.57;100.00;99516.05;105041;1262;66453;-50
2023/01/31 07:16:18;;;;;;;17.90;10.50;;;;;;;0.60;100.00;99519.38;104966;1260;72320;-48
2023/01/31 07:18:46;;;;;;;14.00;10.40;;;;;;;0.63;100.00;99523.03;105520;1259;60452;-49
2023/01/31 07:21:14;;;;;;;11.20;9.00;;;;;;;0.66;100.00;99522.48;104960;1258;59707;-49
2023/01/31 07:23:44;;;;;;;12.70;10.50;;;;;;;0.68;100.00;99521.23;104857;1254;73245;-50
2023/01/31 07:26:16;;;;;;;15.90;11.60;;;;;;;0.68;100.00;99525.63;105137;1255;68349;-48
2023/01/31 07:28:44;;;;;;;21.00;13.80;;;;;;;0.71;100.00;99525.95;105453;1254;71868;-50
2023/01/31 07:31:12;;;;;;;19.20;13.00;;;;;;;0.72;100.00;99525.75;104934;1259;60683;-49
2023/01/31 07:33:41;;;;;;;18.90;13.00;;;;;;;0.74;100.00;99531.58;104982;1259;60205;-50
2023/01/31 07:36:12;;;;;;;23.00;15.70;;;;;;;0.74;100.00;99532.27;105673;1254;73345;-51
2023/01/31 07:38:40;;;;;;;18.80;13.60;;;;;;;0.73;100.00;99532.63;105667;1258;65664;-49
2023/01/31 07:41:08;;;;;;;18.90;12.70;;;;;;;0.71;100.00;99536.36;105430;1255;72289;-49
2023/01/31 07:43:37;;;;;;;21.10;14.10;;;;;;;0.71;100.00;99537.42;104730;1260;60230;-49
2023/01/31 07:46:09;;;;;;;17.40;12.00;;;;;;;0.71;100.00;99541.83;105080;1259;60730;-51
2023/01/31 07:48:37;;;;;;;18.00;12.40;;;;;;;0.72;100.00;99545.18;104962;1254;70856;-51
2023/01/31 07:51:06;;;;;;;16.80;12.10;;;;;;;0.73;100.00;99548.35;104962;1255;67287;-49
2023/01/31 07:53:38;;;;;;;16.40;11.70;;;;;;;0.74;100.00;99552.58;104959;1255;71587;-51
2023/01/31 07:56:14;;;;;;;19.10;14.20;;;;;;;0.80;100.00;99558.34;105039;1256;61241;-52
2023/01/31 07:58:43;;;;;;;18.50;13.40;;;;;;;0.86;100.00;99557.04;105036;1256;60543;-51
2023/01/31 08:04:12;;;;;;;16.50;12.30;;;;;;;0.99;100.00;99569.59;106080;1255;65163;-48
2023/01/31 08:06:51;;;;;;;15.80;11.90;;;;;;;1.06;100.00;99568.43;105096;1254;72862;-52
2023/01/31 08:09:19;;;;;;;19.10;13.00;;;;;;;1.14;100.00;99567.96;105068;1254;60264;-51
2023/01/31 08:12:32;;;;;;;16.60;12.90;;;;;;;1.24;100.00;99593.83;101849;1293;600413;-50
2023/01/31 08:15:01;;;;;;;16.80;13.10;;;;;;;1.30;100.00;99661.81;108212;1266;59093;-52
2023/01/31 08:17:30;;;;;;;21.80;13.90;;;;;;;1.36;100.00;99647.23;106396;1266;60600;-50
2023/01/31 08:19:58;;;;;;;21.00;15.60;;;;;;;1.42;100.00;99640.62;105128;1266;73625;-50
2023/01/31 08:22:26;;;;;;;21.60;15.90;;;;;;;1.45;100.00;99642.67;103957;1267;67519;-51
2023/01/31 08:24:54;;;;;;;22.30;14.30;;;;;;;1.48;100.00;99644.77;104064;1267;72196;-50
2023/01/31 08:27:22;;;;;;;26.00;14.40;;;;;;;1.48;100.00;99647.60;104328;1264;156504;-51
2023/01/31 08:29:50;;;;;;;20.80;15.20;;;;;;;1.47;100.00;99652.38;104186;1264;59483;-51
2023/01/31 08:32:18;;;;;;;20.50;13.90;;;;;;;1.45;100.00;99650.98;105173;1267;71296;-50
2023/01/31 08:34:46;;;;;;;18.30;12.50;;;;;;;1.42;100.00;99649.45;105181;1266;67203;-51
2023/01/31 08:37:14;;;;;;;21.30;14.60;;;;;;;1.40;100.00;99648.06;105067;1266;71770;-51
2023/01/31 08:39:46;;;;;;;19.90;14.30;;;;;;;1.38;100.00;99652.50;104454;1263;60602;-50
2023/01/31 08:42:14;;;;;;;17.60;13.40;;;;;;;1.38;100.00;99649.31;104084;1263;60059;-51
2023/01/31 08:44:43;;;;;;;19.90;15.30;;;;;;;1.40;100.00;99652.30;105103;1268;73686;-51
2023/01/31 08:47:13;;;;;;;20.50;14.80;;;;;;;1.44;100.00;99654.02;104401;1263;67202;-51
2023/01/31 08:49:41;;;;;;;19.80;14.00;;;;;;;1.48;100.00;99652.37;104520;1268;73829;-52
2023/01/31 08:52:09;;;;;;;26.10;14.10;;;;;;;1.52;100.00;99656.23;104332;1264;60801;-52
2023/01/31 08:54:37;;;;;;;18.10;13.50;;;;;;;1.55;100.00;99658.11;105174;1266;59809;-50
2023/01/31 08:57:05;;;;;;;21.00;13.90;;;;;;;1.57;100.00;99655.45;104240;1266;74970;-50
2023/01/31 08:59:33;;;;;;;17.10;13.20;;;;;;;1.59;100.00;99656.48;104377;1263;68227;-51
2023/01/31 09:02:01;;;;;;;18.70;13.70;;;;;;;1.61;100.00;99656.81;104326;1264;71324;-52
2023/01/31 09:04:29;;;;;;;21.50;13.70;;;;;;;1.62;100.00;99656.06;107192;1266;60916;-52
2023/01/31 09:06:58;;;;;;;19.80;13.40;;;;;;;1.66;100.00;99660.98;105119;1263;60684;-51
2023/01/31 09:09:27;;;;;;;17.50;13.30;;;;;;;1.69;100.00;99664.47;104176;1263;71525;-51
2023/01/31 09:11:57;;;;;;;16.40;12.70;;;;;;;1.72;100.00;99659.82;104655;1268;67750;-52
2023/01/31 09:14:34;;;;;;;17.30;13.20;;;;;;;1.74;100.00;99665.64;104192;1263;74163;-51
2023/01/31 09:17:02;;;;;;;20.70;13.00;;;;;;;1.76;100.00;99663.67;104744;1269;61329;-49
2023/01/31 09:19:30;;;;;;;19.30;13.00;;;;;;;1.78;100.00;99660.09;104813;1266;60346;-51
2023/01/31 09:21:59;;;;;;;20.60;13.80;;;;;;;1.82;100.00;99662.69;104585;1264;71163;-51
2023/01/31 09:24:27;;;;;;;20.60;13.70;;;;;;;1.84;100.00;99657.18;104332;1268;66994;-50
2023/01/31 09:26:55;;;;;;;20.30;13.70;;;;;;;1.87;100.00;99657.48;104734;1263;72099;-50
2023/01/31 09:29:24;;;;;;;18.20;14.30;;;;;;;1.90;100.00;99660.27;105187;1268;61339;-51
2023/01/31 09:31:52;;;;;;;17.50;13.00;;;;;;;1.95;100.00;99664.81;104839;1267;60834;-50
2023/01/31 09:34:21;;;;;;;16.60;12.60;;;;;;;1.97;100.00;99664.41;104796;1269;71946;-51
2023/01/31 09:36:49;;;;;;;20.50;13.80;;;;;;;1.97;100.00;99666.34;104857;1267;66864;-51
2023/01/31 09:39:17;;;;;;;21.30;13.80;;;;;;;1.99;100.00;99669.17;104619;1260;74218;-51
2023/01/31 09:41:53;;;;;;;19.50;13.70;;;;;;;1.99;100.00;99662.79;104524;1260;59727;-51
2023/01/31 09:44:27;;;;;;;20.10;14.90;;;;;;;1.98;100.00;99665.45;104516;1260;60632;-50
2023/01/31 09:47:28;;;;;;;18.80;14.30;;;;;;;1.97;100.00;99662.27;104454;1260;72320;-51
2023/01/31 09:50:04;;;;;;;18.40;13.30;;;;;;;1.97;100.00;99677.50;104869;1261;68059;-50
2023/01/31 09:52:32;;;;;;;18.70;12.50;;;;;;;1.98;100.00;99673.06;104812;1263;72172;-49
2023/01/31 09:55:00;;;;;;;17.20;13.20;;;;;;;1.99;100.00;99668.63;104743;1260;62005;-49
2023/01/31 09:57:41;;;;;;;14.00;12.00;;;;;;;2.02;100.00;99669.29;104527;1261;62662;-52
2023/01/31 10:00:21;;;;;;;17.60;13.10;;;;;;;2.08;100.00;99684.78;105400;1260;73078;-52
2023/01/31 10:03:00;;;;;;;19.20;14.40;;;;;;;2.14;100.00;99684.86;104982;1266;66149;-51
2023/01/31 10:05:51;;;;;;;20.50;13.90;;;;;;;2.21;100.00;99688.99;104396;1260;72981;-50
2023/01/31 10:08:40;;;;;;;17.60;14.30;;;;;;;2.26;100.00;99701.50;104620;1265;60248;-50
2023/01/31 10:11:15;;;;;;;23.20;16.90;;;;;;;2.31;100.00;99701.94;104506;1260;59831;-50
2023/01/31 10:14:26;;;;;;;20.60;15.00;;;;;;;2.33;100.00;99694.65;104609;1260;72035;-51
2023/01/31 10:17:16;;;;;;;17.30;13.60;;;;;;;2.34;100.00;99716.78;104504;1260;66313;-52
2023/01/31 10:19:50;;;;;;;18.20;14.10;;;;;;;2.34;100.00;99711.47;104822;1258;74036;-50
2023/01/31 10:22:43;;;;;;;19.20;13.80;;;;;;;2.30;100.00;99700.91;105200;1256;61166;-51
2023/01/31 10:25:39;;;;;;;18.30;14.20;;;;;;;2.28;100.00;99709.44;105030;1257;60526;-50
2023/01/31 10:28:28;;;;;;;17.70;12.70;;;;;;;2.27;100.00;99713.52;104919;1256;73931;-52
2023/01/31 10:31:00;;;;;;;18.30;14.00;;;;;;;2.28;100.00;99711.56;105295;1259;67205;-53
2023/01/31 10:33:38;;;;;;;18.70;13.70;;;;;;;2.28;100.00;99694.55;104940;1258;72687;-52
2023/01/31 10:36:27;;;;;;;19.10;14.10;;;;;;;2.32;100.00;99700.16;104869;1256;62516;-52
2023/01/31 10:39:07;;;;;;;19.40;13.20;;;;;;;2.36;100.00;99708.25;104540;1257;61031;-53
2023/01/31 10:41:45;;;;;;;16.70;12.60;;;;;;;2.40;100.00;99706.05;104402;1257;72962;-53
2023/01/31 10:44:23;;;;;;;17.00;13.00;;;;;;;2.43;100.00;99702.29;105257;1260;66187;-51
2023/01/31 10:46:54;;;;;;;18.10;12.80;;;;;;;2.46;100.00;99702.05;106514;1257;73350;-51
2023/01/31 10:49:22;;;;;;;16.40;12.70;;;;;;;2.49;100.00;99708.91;105385;1256;59722;-51
2023/01/31 10:52:13;;;;;;;17.50;13.00;;;;;;;2.50;100.00;99699.16;104802;1259;60326;-50
2023/01/31 10:54:51;;;;;;;19.30;15.30;;;;;;;2.49;100.00;99706.42;104046;1257;71984;-51
2023/01/31 10:57:19;;;;;;;19.30;14.90;;;;;;;2.47;100.00;99702.92;105384;1258;65463;-51
2023/01/31 10:59:47;;;;;;;20.70;14.50;;;;;;;2.46;100.00;99690.73;106075;1256;72874;-52
2023/01/31 11:02:22;;;;;;;17.50;13.80;;;;;;;2.46;100.00;99691.45;105313;1257;60133;-50
2023/01/31 11:04:53;;;;;;;19.00;13.40;;;;;;;2.45;100.00;99696.41;104748;1258;60320;-52
2023/01/31 11:07:21;;;;;;;17.90;13.50;;;;;;;2.45;100.00;99691.29;105788;1258;73854;-50
2023/01/31 11:09:52;;;;;;;19.90;15.90;;;;;;;2.45;100.00;99688.98;104508;1257;66110;-53
2023/01/31 11:12:21;;;;;;;21.40;14.60;;;;;;;2.46;100.00;99695.52;104643;1258;72203;-51
2023/01/31 11:15:05;;;;;;;18.00;14.40;;;;;;;2.46;100.00;99694.45;104589;1260;60489;-53
2023/01/31 11:17:35;;;;;;;21.10;14.70;;;;;;;2.45;100.00;99699.44;105634;1257;61325;-52
2023/01/31 11:20:05;;;;;;;22.00;15.80;;;;;;;2.42;100.00;99696.11;104729;1257;71532;-53
2023/01/31 11:22:34;;;;;;;22.20;16.10;;;;;;;2.40;100.00;99699.67;105170;1257;67999;-53
2023/01/31 11:25:05;;;;;;;21.90;14.50;;;;;;;2.38;100.00;99701.66;104665;1257;70836;-53
2023/01/31 11:27:38;;;;;;;15.80;12.60;;;;;;;2.36;100.00;99702.58;104597;1257;62764;-55
2023/01/31 11:30:16;;;;;;;20.20;14.80;;;;;;;2.32;100.00;99696.97;104713;1256;59748;-53
2023/01/31 11:32:44;;;;;;;17.50;12.50;;;;;;;2.26;100.00;99690.16;104785;1262;72545;-54
2023/01/31 11:35:12;;;;;;;17.50;13.30;;;;;;;2.23;100.00;99688.95;105092;1260;66426;-54
2023/01/31 11:37:58;;;;;;;18.80;13.60;;;;;;;2.24;100.00;99690.19;104812;1257;71951;-54
2023/01/31 11:40:37;;;;;;;21.60;15.00;;;;;;;2.25;100.00;99701.51;105640;1257;61128;-53
2023/01/31 11:43:19;;;;;;;17.60;11.90;;;;;;;2.25;100.00;99699.73;105557;1257;60575;-53
2023/01/31 11:45:58;;;;;;;18.10;13.70;;;;;;;2.25;100.00;99703.80;104937;1257;74583;-51